Keenes, Illinois
Current Conditions -  °F | °C
As of 10:35 PM on Wednesday 28 Jan 2015 (Local Time) from KMVN Reporting Station
Scattered Clouds Scattered Clouds  
Wind Chill: 37°   Ceiling: Unl
Heat Index: 43°   Visibility: 10mi
Dew Point: 28°   Wind: 9mph
Humidity: 57%   Direction: 170°S
Pressure: 29.95"   Gusts: NA
Location:  38.34°N, 88.64°W
Report Text: KMVN 290435Z AUTO 17008KT 10SM SCT110 06/M02 A2995 RMK AO1
Loading
Personal Weather Stations






























Interactive Weather Map New forecast layout! Learn more

10-Day Weather Forecast

Advertisements
Track Severe Weather on mobile